createdAt,value
2018-09-27T00:01:20.206Z,10.00
2018-09-27T00:03:47.889Z,10.00
2018-09-27T00:06:15.576Z,10.10
2018-09-27T00:08:43.259Z,10.20
2018-09-27T00:11:10.929Z,10.10
2018-09-27T00:13:38.629Z,10.20
2018-09-27T00:16:06.308Z,10.20
2018-09-27T00:18:33.977Z,10.20
2018-09-27T00:21:01.678Z,10.20
2018-09-27T00:23:29.351Z,10.20
2018-09-27T00:25:57.033Z,10.20
2018-09-27T00:28:24.705Z,10.20
2018-09-27T00:30:52.410Z,10.20
2018-09-27T00:33:20.090Z,10.10
2018-09-27T00:35:47.802Z,10.10
2018-09-27T00:38:15.530Z,10.10
2018-09-27T00:40:43.216Z,10.10
2018-09-27T00:43:10.919Z,10.10
2018-09-27T00:45:42.214Z,10.10
2018-09-27T00:48:10.361Z,10.00
2018-09-27T00:50:38.125Z,10.10
2018-09-27T00:53:05.818Z,10.10
2018-09-27T00:55:33.569Z,10.00
2018-09-27T00:58:01.877Z,9.90
2018-09-27T01:00:29.597Z,9.90
2018-09-27T01:02:57.277Z,10.00
2018-09-27T01:05:25.003Z,10.00
2018-09-27T01:07:52.901Z,10.00
2018-09-27T01:10:20.702Z,9.90
2018-09-27T01:12:48.404Z,9.90
2018-09-27T01:15:16.142Z,9.90
2018-09-27T01:17:43.832Z,9.80
2018-09-27T01:20:11.542Z,9.80
2018-09-27T01:22:39.361Z,9.80
2018-09-27T01:25:07.349Z,9.80
2018-09-27T01:27:35.021Z,9.80
2018-09-27T01:30:02.851Z,9.70
2018-09-27T01:32:30.518Z,9.70
2018-09-27T01:34:58.273Z,9.70
2018-09-27T01:37:26.023Z,9.70
2018-09-27T01:39:53.753Z,9.70
2018-09-27T01:42:21.449Z,9.70
2018-09-27T01:44:49.338Z,9.60
2018-09-27T01:47:17.010Z,9.60
2018-09-27T01:49:44.713Z,9.60
2018-09-27T01:52:12.396Z,9.60
2018-09-27T01:54:40.072Z,9.60
2018-09-27T01:57:07.747Z,9.60
2018-09-27T01:59:35.472Z,9.70
2018-09-27T02:02:03.138Z,9.60
2018-09-27T02:04:30.825Z,9.60
2018-09-27T02:06:58.497Z,9.60
2018-09-27T02:09:26.194Z,9.50
2018-09-27T02:11:53.861Z,9.50
2018-09-27T02:14:21.517Z,9.40
2018-09-27T02:16:49.196Z,9.40
2018-09-27T02:19:17.187Z,9.40
2018-09-27T02:21:44.920Z,9.40
2018-09-27T02:24:12.568Z,9.40
2018-09-27T02:26:40.285Z,9.40
2018-09-27T02:29:08.235Z,9.40
2018-09-27T02:31:35.952Z,9.40
2018-09-27T02:34:03.649Z,9.30
2018-09-27T02:36:31.306Z,9.30
2018-09-27T02:38:59.010Z,9.20
2018-09-27T02:41:26.804Z,9.20
2018-09-27T02:43:54.520Z,9.20
2018-09-27T02:46:22.267Z,9.20
2018-09-27T02:48:49.977Z,9.20
2018-09-27T02:51:17.793Z,9.20
2018-09-27T02:53:45.469Z,9.20
2018-09-27T02:56:13.135Z,9.20
2018-09-27T02:58:40.815Z,9.20
2018-09-27T03:01:08.760Z,9.20
2018-09-27T03:03:36.462Z,9.10
2018-09-27T03:06:04.140Z,9.10
2018-09-27T03:08:31.846Z,9.10
2018-09-27T03:10:59.525Z,9.10
2018-09-27T03:13:27.204Z,9.10
2018-09-27T03:15:54.875Z,9.10
2018-09-27T03:18:22.788Z,9.00
2018-09-27T03:23:24.733Z,8.90
2018-09-27T03:25:52.417Z,9.00
2018-09-27T03:28:20.190Z,9.00
2018-09-27T03:30:47.894Z,9.00
2018-09-27T03:33:15.596Z,8.90
2018-09-27T03:35:43.290Z,8.90
2018-09-27T03:38:11.014Z,9.00
2018-09-27T03:40:38.743Z,9.00
2018-09-27T03:43:06.374Z,9.00
2018-09-27T03:45:34.037Z,9.00
2018-09-27T03:48:01.714Z,9.00
2018-09-27T03:50:29.385Z,9.00
2018-09-27T03:52:57.057Z,8.90
2018-09-27T03:55:24.743Z,9.10
2018-09-27T03:57:52.422Z,9.00
2018-09-27T04:00:20.095Z,9.10
2018-09-27T04:02:47.784Z,9.10
2018-09-27T04:05:15.482Z,9.10
2018-09-27T04:07:43.197Z,9.10
2018-09-27T04:10:10.887Z,9.10
2018-09-27T04:12:38.568Z,9.20
2018-09-27T04:15:06.424Z,9.10
2018-09-27T04:17:34.095Z,9.10
2018-09-27T04:20:01.759Z,9.10
2018-09-27T04:22:29.443Z,9.10
2018-09-27T04:24:57.685Z,9.00
2018-09-27T04:27:25.363Z,9.00
2018-09-27T04:29:53.259Z,8.90
2018-09-27T04:32:20.935Z,9.00
2018-09-27T04:34:48.614Z,9.00
2018-09-27T04:37:16.285Z,9.00
2018-09-27T04:39:44.004Z,9.00
2018-09-27T04:42:11.669Z,9.10
2018-09-27T04:44:39.333Z,9.20
2018-09-27T04:47:07.004Z,9.20
2018-09-27T04:49:34.664Z,9.20
2018-09-27T04:52:02.344Z,9.10
2018-09-27T04:54:30.054Z,9.00
2018-09-27T04:56:57.729Z,9.00
2018-09-27T04:59:25.416Z,9.00
2018-09-27T05:01:53.107Z,8.90
2018-09-27T05:04:20.970Z,8.90
2018-09-27T05:06:48.630Z,9.00
2018-09-27T05:09:16.288Z,8.90
2018-09-27T05:11:44.021Z,8.90
2018-09-27T05:14:11.701Z,9.00
2018-09-27T05:16:39.365Z,8.90
2018-09-27T05:19:07.081Z,8.90
2018-09-27T05:21:34.827Z,8.90
2018-09-27T05:24:02.449Z,9.00
2018-09-27T05:26:30.097Z,9.00
2018-09-27T05:28:57.776Z,9.10
2018-09-27T05:31:25.432Z,9.00
2018-09-27T05:33:54.015Z,8.90
2018-09-27T05:36:21.664Z,8.90
2018-09-27T05:38:49.364Z,9.00
2018-09-27T05:41:17.017Z,8.90
2018-09-27T05:43:44.716Z,8.90
2018-09-27T05:46:12.379Z,8.90
2018-09-27T05:48:40.077Z,8.90
2018-09-27T05:51:08.158Z,9.00
2018-09-27T05:53:35.919Z,8.90
2018-09-27T05:56:03.654Z,8.90
2018-09-27T05:58:31.346Z,8.90
2018-09-27T06:00:59.002Z,9.00
2018-09-27T06:03:26.721Z,9.10
2018-09-27T06:05:54.356Z,9.20
2018-09-27T06:08:22.034Z,9.20
2018-09-27T06:10:49.703Z,9.30
2018-09-27T06:13:17.396Z,9.30
2018-09-27T06:15:45.150Z,9.20
2018-09-27T06:18:12.838Z,9.10
2018-09-27T06:20:40.495Z,9.20
2018-09-27T06:23:08.194Z,9.20
2018-09-27T06:25:35.848Z,9.20
2018-09-27T06:28:03.534Z,9.00
2018-09-27T06:30:31.237Z,9.10
2018-09-27T06:32:58.966Z,9.10
2018-09-27T06:35:26.637Z,9.20
2018-09-27T06:37:54.304Z,9.20
2018-09-27T06:40:22.384Z,9.20
2018-09-27T06:42:50.057Z,9.20
2018-09-27T06:45:18.681Z,9.20
2018-09-27T06:47:46.393Z,9.50
2018-09-27T06:50:14.153Z,9.60
2018-09-27T06:52:42.142Z,9.60
2018-09-27T06:55:09.874Z,9.70
2018-09-27T06:57:37.489Z,9.80
2018-09-27T07:00:05.230Z,9.80
2018-09-27T07:02:32.933Z,10.30
2018-09-27T07:05:00.739Z,10.40
2018-09-27T07:07:28.917Z,10.40
2018-09-27T07:09:56.577Z,10.50
2018-09-27T07:12:24.406Z,10.60
2018-09-27T07:14:51.947Z,10.60
2018-09-27T07:17:19.646Z,10.90
2018-09-27T07:19:47.361Z,11.10
2018-09-27T07:22:15.040Z,11.50
2018-09-27T07:24:42.705Z,12.00
2018-09-27T07:27:10.390Z,12.10
2018-09-27T07:29:38.048Z,12.30
2018-09-27T07:32:05.938Z,12.60
2018-09-27T07:34:33.716Z,13.70
2018-09-27T07:37:01.579Z,15.40
2018-09-27T07:39:29.300Z,16.20
2018-09-27T07:41:57.077Z,16.80
2018-09-27T07:44:24.761Z,17.50
2018-09-27T07:46:52.442Z,17.90
2018-09-27T07:49:20.170Z,17.90
2018-09-27T07:51:49.962Z,18.00
2018-09-27T07:54:17.690Z,18.20
2018-09-27T07:56:45.367Z,18.30
2018-09-27T07:59:13.159Z,18.40
2018-09-27T08:01:40.818Z,18.70
2018-09-27T08:04:08.558Z,18.50
2018-09-27T08:06:36.257Z,18.60
2018-09-27T08:09:05.550Z,18.80
2018-09-27T08:11:33.351Z,19.20
2018-09-27T08:14:00.933Z,19.20
2018-09-27T08:16:28.593Z,19.30
2018-09-27T08:18:56.323Z,19.50
2018-09-27T08:21:24.124Z,19.60
2018-09-27T08:23:51.705Z,19.60
2018-09-27T08:26:19.370Z,19.70
2018-09-27T08:28:47.082Z,20.00
2018-09-27T08:31:14.750Z,20.40
2018-09-27T08:33:42.469Z,20.20
2018-09-27T08:36:10.165Z,20.30
2018-09-27T08:38:37.915Z,19.90
2018-09-27T08:41:05.882Z,19.70
2018-09-27T08:43:33.601Z,20.10
2018-09-27T08:46:01.283Z,20.10
2018-09-27T08:48:28.988Z,20.60
2018-09-27T08:50:56.667Z,20.40
2018-09-27T08:53:24.357Z,20.60
2018-09-27T08:55:52.089Z,20.60
2018-09-27T08:58:19.757Z,20.60
2018-09-27T09:00:47.433Z,20.40
2018-09-27T09:03:15.225Z,20.30
2018-09-27T09:05:42.911Z,20.00
2018-09-27T09:08:10.584Z,20.00
2018-09-27T09:10:38.300Z,20.10
2018-09-27T09:13:05.973Z,20.00
2018-09-27T09:15:33.692Z,20.30
2018-09-27T09:18:01.578Z,20.30
2018-09-27T09:20:29.248Z,20.20
2018-09-27T09:22:57.021Z,20.00
2018-09-27T09:25:24.707Z,19.90
2018-09-27T09:27:52.372Z,20.00
2018-09-27T09:30:20.074Z,20.00
2018-09-27T09:32:47.969Z,20.00
2018-09-27T09:35:15.681Z,20.30
2018-09-27T09:37:43.341Z,20.30
2018-09-27T09:40:11.013Z,20.40
2018-09-27T09:42:38.674Z,20.80
2018-09-27T09:45:06.401Z,20.80
2018-09-27T09:47:34.114Z,20.20
2018-09-27T09:50:01.902Z,20.20
2018-09-27T09:52:29.548Z,20.50
2018-09-27T09:54:57.603Z,20.70
2018-09-27T09:57:25.684Z,20.70
2018-09-27T09:59:53.354Z,20.90
2018-09-27T10:02:21.076Z,20.70
2018-09-27T10:04:48.745Z,20.50
2018-09-27T10:07:16.918Z,20.90
2018-09-27T10:09:45.470Z,21.00
2018-09-27T10:12:13.128Z,21.10
2018-09-27T10:14:40.813Z,21.30
2018-09-27T10:17:08.582Z,21.50
2018-09-27T10:19:36.696Z,21.90
2018-09-27T10:22:04.486Z,22.20
2018-09-27T10:24:32.218Z,22.50
2018-09-27T10:26:59.958Z,22.70
2018-09-27T10:29:27.697Z,22.70
2018-09-27T10:31:55.409Z,22.50
2018-09-27T10:34:24.254Z,22.40
2018-09-27T10:36:51.969Z,22.10
2018-09-27T10:39:19.678Z,22.00
2018-09-27T10:41:47.403Z,22.00
2018-09-27T10:44:15.086Z,22.50
2018-09-27T10:46:42.848Z,23.10
2018-09-27T10:49:10.601Z,23.30
2018-09-27T10:51:38.721Z,23.10
2018-09-27T10:54:08.106Z,23.00
2018-09-27T10:56:37.731Z,23.20
2018-09-27T10:59:05.654Z,23.00
2018-09-27T11:01:33.358Z,22.80
2018-09-27T11:04:01.169Z,22.80
2018-09-27T11:06:28.942Z,22.60
2018-09-27T11:08:56.752Z,22.40
2018-09-27T11:11:24.521Z,22.90
2018-09-27T11:13:52.286Z,23.30
2018-09-27T11:16:19.996Z,23.40
2018-09-27T11:18:49.070Z,24.00
2018-09-27T11:21:16.831Z,24.50
2018-09-27T11:23:44.594Z,24.60
2018-09-27T11:26:12.321Z,24.00
2018-09-27T11:29:46.924Z,24.00
2018-09-27T11:32:20.470Z,24.20
2018-09-27T11:34:48.253Z,24.50
2018-09-27T11:37:16.037Z,24.10
2018-09-27T11:39:43.754Z,23.80
2018-09-27T11:42:11.491Z,24.30
2018-09-27T11:44:39.220Z,24.90
2018-09-27T11:47:09.225Z,25.20
2018-09-27T11:49:37.129Z,25.20
2018-09-27T11:52:04.777Z,25.40
2018-09-27T11:54:32.509Z,25.30
2018-09-27T11:57:00.225Z,25.70
2018-09-27T11:59:27.942Z,25.60
2018-09-27T12:01:55.731Z,25.70
2018-09-27T12:04:23.678Z,25.80
2018-09-27T12:06:51.399Z,25.80
2018-09-27T12:09:20.184Z,26.10
2018-09-27T12:11:47.893Z,26.30
2018-09-27T12:14:17.370Z,26.10
2018-09-27T12:16:45.160Z,25.80
2018-09-27T12:19:12.940Z,26.00
2018-09-27T12:21:40.686Z,26.20
2018-09-27T12:24:08.471Z,26.00
2018-09-27T12:26:36.208Z,26.10
2018-09-27T12:29:04.033Z,26.80
2018-09-27T12:31:31.841Z,27.10
2018-09-27T12:33:59.638Z,27.50
2018-09-27T12:36:35.467Z,27.60
2018-09-27T12:39:04.801Z,27.90
2018-09-27T12:41:36.469Z,28.10
2018-09-27T12:44:04.313Z,27.80
2018-09-27T12:46:34.364Z,28.10
2018-09-27T12:49:02.096Z,28.30
2018-09-27T12:51:29.945Z,28.20
2018-09-27T12:53:57.615Z,28.40
2018-09-27T12:56:25.379Z,27.30
2018-09-27T12:58:53.145Z,27.60
2018-09-27T13:01:20.938Z,28.40
2018-09-27T13:03:49.241Z,28.40
2018-09-27T13:06:16.973Z,28.50
2018-09-27T13:08:45.916Z,28.90
2018-09-27T13:11:13.609Z,28.20
2018-09-27T13:13:41.398Z,28.20
2018-09-27T13:16:09.187Z,28.00
2018-09-27T13:18:36.978Z,28.20
2018-09-27T13:21:04.850Z,28.20
2018-09-27T13:23:32.594Z,28.50
2018-09-27T13:26:00.487Z,28.30
2018-09-27T13:28:28.746Z,28.50
2018-09-27T13:30:56.504Z,28.80
2018-09-27T13:33:24.240Z,28.30
2018-09-27T13:35:52.025Z,27.80
2018-09-27T13:38:19.744Z,28.60
2018-09-27T13:40:47.521Z,28.60
2018-09-27T13:43:15.323Z,28.80
2018-09-27T13:45:43.071Z,28.80
2018-09-27T13:48:10.989Z,29.10
2018-09-27T13:50:38.717Z,28.90
2018-09-27T13:53:06.484Z,29.40
2018-09-27T13:55:34.368Z,29.00
2018-09-27T13:58:02.105Z,27.90
2018-09-27T14:03:06.892Z,28.20
2018-09-27T14:05:34.737Z,28.70
2018-09-27T14:08:02.302Z,28.40
2018-09-27T14:10:29.972Z,28.60
2018-09-27T14:12:57.643Z,28.80
2018-09-27T14:15:25.414Z,29.20
2018-09-27T14:17:53.111Z,29.10
2018-09-27T14:20:20.811Z,28.90
2018-09-27T14:22:48.655Z,28.70
2018-09-27T14:25:16.358Z,29.30
2018-09-27T14:27:44.021Z,29.60
2018-09-27T14:30:11.728Z,29.40
2018-09-27T14:32:39.397Z,28.90
2018-09-27T14:35:07.108Z,28.90
2018-09-27T14:37:34.794Z,29.40
2018-09-27T14:40:02.492Z,29.10
2018-09-27T14:42:30.216Z,29.20
2018-09-27T14:44:57.859Z,28.30
2018-09-27T14:47:25.532Z,28.50
2018-09-27T14:49:53.348Z,28.50
2018-09-27T14:52:21.021Z,28.60
2018-09-27T14:54:48.816Z,29.30
2018-09-27T14:57:16.489Z,28.40
2018-09-27T14:59:44.287Z,28.20
2018-09-27T15:02:11.975Z,28.40
2018-09-27T15:04:39.658Z,28.20
2018-09-27T15:07:07.356Z,27.90
2018-09-27T15:09:35.134Z,27.80
2018-09-27T15:12:02.786Z,27.90
2018-09-27T15:14:30.478Z,27.30
2018-09-27T15:16:58.159Z,26.40
2018-09-27T15:19:25.845Z,25.60
2018-09-27T15:21:53.554Z,25.00
2018-09-27T15:24:21.238Z,24.70
2018-09-27T15:26:48.921Z,24.50
2018-09-27T15:29:16.589Z,24.30
2018-09-27T15:31:44.298Z,24.20
2018-09-27T15:34:12.158Z,24.10
2018-09-27T15:36:39.904Z,23.80
2018-09-27T15:39:07.978Z,23.70
2018-09-27T15:41:35.688Z,23.70
2018-09-27T15:44:03.513Z,23.50
2018-09-27T15:46:31.236Z,23.40
2018-09-27T15:48:58.911Z,23.20
2018-09-27T15:51:27.014Z,23.10
2018-09-27T15:53:54.774Z,23.10
2018-09-27T15:56:22.575Z,23.20
2018-09-27T15:58:50.265Z,23.10
2018-09-27T16:01:17.962Z,23.10
2018-09-27T16:03:45.672Z,23.00
2018-09-27T16:06:13.365Z,23.00
2018-09-27T16:08:41.582Z,22.90
2018-09-27T16:11:09.284Z,22.80
2018-09-27T16:13:36.953Z,22.70
2018-09-27T16:16:04.652Z,22.60
2018-09-27T16:18:32.342Z,22.60
2018-09-27T16:21:00.041Z,22.50
2018-09-27T16:23:27.849Z,22.50
2018-09-27T16:25:55.489Z,22.50
2018-09-27T16:28:23.165Z,22.40
2018-09-27T16:30:50.892Z,22.30
2018-09-27T16:33:18.721Z,22.20
2018-09-27T16:35:46.475Z,22.00
2018-09-27T16:38:14.095Z,22.00
2018-09-27T16:40:41.780Z,21.90
2018-09-27T16:43:09.498Z,21.80
2018-09-27T16:45:37.169Z,21.70
2018-09-27T16:48:04.893Z,21.50
2018-09-27T16:50:32.590Z,21.40
2018-09-27T16:53:00.302Z,21.30
2018-09-27T16:55:27.989Z,21.20
2018-09-27T16:57:55.689Z,21.10
2018-09-27T17:00:23.378Z,21.00
2018-09-27T17:02:51.120Z,20.80
2018-09-27T17:05:18.773Z,20.60
2018-09-27T17:07:46.453Z,20.50
2018-09-27T17:10:14.297Z,20.40
2018-09-27T17:12:42.071Z,20.20
2018-09-27T17:15:09.780Z,20.00
2018-09-27T17:17:37.493Z,19.80
2018-09-27T17:20:05.186Z,19.60
2018-09-27T17:22:32.916Z,19.40
2018-09-27T17:25:00.596Z,19.20
2018-09-27T17:30:02.571Z,18.90
2018-09-27T17:32:30.271Z,18.80
2018-09-27T17:34:58.006Z,18.70
2018-09-27T17:37:25.692Z,18.60
2018-09-27T17:39:53.393Z,18.60
2018-09-27T17:42:21.107Z,18.50
2018-09-27T17:44:48.820Z,18.40
2018-09-27T17:47:16.520Z,18.30
2018-09-27T17:49:44.269Z,18.10
2018-09-27T17:52:11.921Z,17.90
2018-09-27T17:54:39.624Z,17.70
2018-09-27T17:57:07.536Z,17.60
2018-09-27T17:59:35.233Z,17.40
2018-09-27T18:02:02.934Z,17.30
2018-09-27T18:04:30.728Z,17.30
2018-09-27T18:06:58.422Z,17.30
2018-09-27T18:09:27.260Z,17.20
2018-09-27T18:11:54.933Z,17.10
2018-09-27T18:14:22.664Z,17.00
2018-09-27T18:16:50.338Z,17.00
2018-09-27T18:19:18.025Z,16.90
2018-09-27T18:21:45.771Z,17.00
2018-09-27T18:24:13.513Z,16.90
2018-09-27T18:26:41.361Z,16.80
2018-09-27T18:29:09.081Z,16.80
2018-09-27T18:31:36.862Z,16.80
2018-09-27T18:34:04.585Z,16.70
2018-09-27T18:36:32.375Z,16.70
2018-09-27T18:39:00.107Z,16.60
2018-09-27T18:41:27.824Z,16.60
2018-09-27T18:43:55.571Z,16.70
2018-09-27T18:46:23.287Z,16.60
2018-09-27T18:48:50.969Z,16.60
2018-09-27T18:51:19.762Z,16.60
2018-09-27T18:53:47.452Z,16.50
2018-09-27T18:56:15.781Z,16.40
2018-09-27T18:58:43.463Z,16.30
2018-09-27T19:01:11.879Z,16.40
2018-09-27T19:03:39.632Z,16.30
2018-09-27T19:06:07.392Z,16.30
2018-09-27T19:08:35.065Z,16.20
2018-09-27T19:11:02.832Z,16.20
2018-09-27T19:13:30.515Z,16.10
2018-09-27T19:15:58.278Z,16.00
2018-09-27T19:18:25.955Z,15.90
2018-09-27T19:20:53.726Z,15.90
2018-09-27T19:23:21.431Z,15.80
2018-09-27T19:25:49.172Z,15.60
2018-09-27T19:28:16.864Z,15.60
2018-09-27T19:30:44.597Z,15.60
2018-09-27T19:33:12.387Z,15.40
2018-09-27T19:35:40.105Z,15.40
2018-09-27T19:38:07.862Z,15.30
2018-09-27T19:40:35.806Z,15.30
2018-09-27T19:43:03.546Z,15.30
2018-09-27T19:45:31.270Z,15.20
2018-09-27T19:47:58.984Z,15.10
2018-09-27T19:50:26.831Z,15.10
2018-09-27T19:52:54.536Z,15.00
2018-09-27T19:55:22.287Z,15.20
2018-09-27T19:57:50.453Z,15.20
2018-09-27T20:00:18.890Z,15.30
2018-09-27T20:02:46.798Z,15.30
2018-09-27T20:05:14.426Z,15.30
2018-09-27T20:07:42.092Z,15.30
2018-09-27T20:10:09.852Z,15.20
2018-09-27T20:12:37.640Z,15.20
2018-09-27T20:15:05.356Z,15.20
2018-09-27T20:17:33.063Z,15.10
2018-09-27T20:20:00.792Z,15.10
2018-09-27T20:22:28.518Z,15.00
2018-09-27T20:24:56.241Z,15.00
2018-09-27T20:27:24.024Z,14.90
2018-09-27T20:29:56.134Z,14.80
2018-09-27T20:32:24.300Z,14.80
2018-09-27T20:34:52.305Z,14.80
2018-09-27T20:37:20.454Z,14.80
2018-09-27T20:39:48.257Z,14.70
2018-09-27T20:42:17.344Z,14.70
2018-09-27T20:44:45.617Z,14.70
2018-09-27T20:47:13.317Z,14.60
2018-09-27T20:49:40.984Z,14.60
2018-09-27T20:52:08.919Z,14.50
2018-09-27T20:54:36.635Z,14.30
2018-09-27T20:57:06.517Z,14.20
2018-09-27T20:59:34.244Z,14.10
2018-09-27T21:02:02.237Z,14.00
2018-09-27T21:04:29.903Z,13.90
2018-09-27T21:06:57.638Z,13.90
2018-09-27T21:09:26.129Z,13.90
2018-09-27T21:11:53.866Z,13.80
2018-09-27T21:14:21.522Z,13.90
2018-09-27T21:16:49.205Z,13.80
2018-09-27T21:19:16.938Z,13.70
2018-09-27T21:21:44.684Z,13.70
2018-09-27T21:24:12.348Z,13.60
2018-09-27T21:26:40.021Z,13.60
2018-09-27T21:29:07.669Z,13.50
2018-09-27T21:31:35.405Z,13.40
2018-09-27T21:34:03.434Z,13.30
2018-09-27T21:36:31.140Z,13.20
2018-09-27T21:38:58.826Z,13.10
2018-09-27T21:41:26.582Z,12.90
2018-09-27T21:43:54.292Z,12.90
2018-09-27T21:46:22.085Z,12.80
2018-09-27T21:48:49.815Z,12.70
2018-09-27T21:51:17.572Z,12.60
2018-09-27T21:53:45.801Z,12.50
2018-09-27T21:56:17.201Z,12.60
2018-09-27T21:58:45.074Z,12.50
2018-09-27T22:01:12.766Z,12.50
2018-09-27T22:03:40.977Z,12.40
2018-09-27T22:06:08.721Z,12.40
2018-09-27T22:08:36.442Z,12.30
2018-09-27T22:11:04.118Z,12.30
2018-09-27T22:13:31.845Z,12.20
2018-09-27T22:15:59.517Z,12.10
2018-09-27T22:18:27.217Z,12.10
2018-09-27T22:20:54.922Z,12.10
2018-09-27T22:23:22.729Z,12.00
2018-09-27T22:25:50.890Z,12.00
2018-09-27T22:28:18.603Z,11.90
2018-09-27T22:30:46.354Z,11.90
2018-09-27T22:33:14.185Z,11.80
2018-09-27T22:35:42.228Z,11.90
2018-09-27T22:38:10.041Z,11.80
2018-09-27T22:40:38.268Z,11.80
2018-09-27T22:43:06.328Z,11.70
2018-09-27T22:45:34.040Z,11.80
2018-09-27T22:48:01.789Z,11.80
2018-09-27T22:50:29.533Z,11.80
2018-09-27T22:52:57.417Z,11.80
2018-09-27T22:55:25.134Z,11.60
2018-09-27T22:57:52.869Z,11.60
2018-09-27T23:00:20.655Z,11.60
2018-09-27T23:02:48.491Z,11.50
2018-09-27T23:05:16.731Z,11.40
2018-09-27T23:07:44.449Z,11.40
2018-09-27T23:10:12.291Z,11.30
2018-09-27T23:12:40.111Z,11.20
2018-09-27T23:15:08.277Z,11.10
2018-09-27T23:17:36.238Z,11.10
2018-09-27T23:20:03.958Z,11.10
2018-09-27T23:22:31.693Z,11.00
2018-09-27T23:24:59.502Z,11.00
2018-09-27T23:27:27.222Z,11.00
2018-09-27T23:29:54.980Z,10.90
2018-09-27T23:32:22.722Z,11.00
2018-09-27T23:34:50.453Z,11.10
2018-09-27T23:37:18.252Z,11.20
2018-09-27T23:39:46.113Z,11.20
2018-09-27T23:42:13.919Z,11.30
2018-09-27T23:44:41.827Z,11.30
2018-09-27T23:47:09.753Z,11.30
2018-09-27T23:49:37.855Z,11.20
2018-09-27T23:52:05.646Z,11.20
2018-09-27T23:54:33.379Z,11.20
2018-09-27T23:57:01.149Z,11.20
2018-09-27T23:59:28.911Z,11.20
